Abergwesyn, United Kingdom
Current Conditions -  °F | °C
As of 3:50 PM on Friday 21 Nov 2014 (Local Time) from EGOP Reporting Station
Broken Clouds Broken Clouds  
Wind Chill: 50°   Ceiling: 2000
Heat Index: 50°   Visibility: 1.4mi
Dew Point: 48°   Wind: 20mph
Humidity: 94%   Direction: 120°ESE
Pressure: 29.83"   Gusts: NA
Location:  52.16°N, 3.68°W
Report Text: EGOP 211550Z AUTO 12017KT 2300 // BKN020/// SCT050/// 10/09 Q1010
Loading
Personal Weather Stations






























Interactive Weather Map New forecast layout! Learn more

10-Day Weather Forecast

Advertisements
Track Severe Weather on mobile